TimeEDT,TemperatureF,Dew PointF,Humidity,Sea Level PressureIn,VisibilityMPH,Wind Direction,Wind SpeedMPH,Gust SpeedMPH,PrecipitationIn,Events,Conditions,WindDirDegrees,DateUTC
12:15 AM,64.8,59.4,83,30.07,10.0,Calm,Calm,-,N/A,,Mostly Cloudy,0,2013-08-06 04:15:00
12:35 AM,65.1,59.0,81,30.08,10.0,Calm,Calm,-,N/A,,Mostly Cloudy,0,2013-08-06 04:35:00
12:55 AM,65.3,59.0,80,30.08,10.0,Calm,Calm,-,N/A,,Overcast,0,2013-08-06 04:55:00
1:15 AM,65.1,59.0,81,30.07,10.0,Calm,Calm,-,N/A,,Overcast,0,2013-08-06 05:15:00
1:35 AM,65.1,58.6,79,30.06,10.0,Calm,Calm,-,N/A,,Mostly Cloudy,0,2013-08-06 05:35:00
1:55 AM,64.9,59.0,81,30.05,10.0,Calm,Calm,-,N/A,,Scattered Clouds,0,2013-08-06 05:55:00
2:15 AM,64.6,59.0,82,30.05,10.0,Calm,Calm,-,N/A,,Mostly Cloudy,0,2013-08-06 06:15:00
2:35 AM,64.4,59.0,83,30.05,10.0,Calm,Calm,-,N/A,,Mostly Cloudy,0,2013-08-06 06:35:00
2:55 AM,64.6,59.4,83,30.05,10.0,Calm,Calm,-,N/A,,Overcast,0,2013-08-06 06:55:00
3:15 AM,65.3,59.5,82,30.05,10.0,Calm,Calm,-,N/A,,Overcast,0,2013-08-06 07:15:00
3:35 AM,65.3,59.4,81,30.05,10.0,Calm,Calm,-,N/A,,Overcast,0,2013-08-06 07:35:00
3:55 AM,65.5,59.2,80,30.04,10.0,Calm,Calm,-,N/A,,Mostly Cloudy,0,2013-08-06 07:55:00
4:15 AM,64.8,59.9,84,30.03,10.0,Calm,Calm,-,N/A,,Overcast,0,2013-08-06 08:15:00
4:35 AM,64.8,59.7,84,30.03,10.0,North,3.5,-,N/A,,Overcast,10,2013-08-06 08:35:00
4:55 AM,64.6,59.9,85,30.03,10.0,Calm,Calm,-,N/A,,Overcast,0,2013-08-06 08:55:00
5:15 AM,64.9,60.3,85,30.04,10.0,North,4.6,-,N/A,Rain,Light Rain,350,2013-08-06 09:15:00
5:35 AM,64.8,60.4,86,30.04,10.0,Calm,Calm,-,N/A,Rain,Light Rain,0,2013-08-06 09:35:00
5:55 AM,64.2,60.4,87,30.04,10.0,Calm,Calm,-,N/A,,Light Drizzle,0,2013-08-06 09:55:00
6:15 AM,63.7,60.8,90,30.05,5.0,South,3.5,-,0.01,Rain,Light Rain,190,2013-08-06 10:15:00
6:35 AM,63.5,60.8,91,30.04,5.0,Calm,Calm,-,0.02,Rain,Light Rain,0,2013-08-06 10:35:00
6:55 AM,63.0,60.8,93,30.04,3.0,Calm,Calm,-,0.02,,Overcast,0,2013-08-06 10:55:00
7:15 AM,63.1,61.2,93,30.04,4.0,Calm,Calm,-,N/A,,Mostly Cloudy,0,2013-08-06 11:15:00
7:35 AM,63.7,61.5,93,30.04,5.0,Calm,Calm,-,N/A,,Overcast,0,2013-08-06 11:35:00
7:55 AM,64.0,61.7,92,30.05,7.0,Calm,Calm,-,N/A,,Overcast,0,2013-08-06 11:55:00
8:15 AM,64.6,61.7,90,30.06,7.0,Calm,Calm,-,N/A,Rain,Rain,0,2013-08-06 12:15:00
8:35 AM,64.9,61.9,90,30.07,7.0,Calm,Calm,-,N/A,Rain,Light Rain,0,2013-08-06 12:35:00
8:55 AM,66.0,61.9,86,30.07,10.0,Calm,Calm,-,N/A,,Overcast,0,2013-08-06 12:55:00
9:15 AM,66.7,62.2,85,30.06,10.0,NE,4.6,-,N/A,,Overcast,50,2013-08-06 13:15:00
9:35 AM,66.9,62.2,85,30.07,10.0,North,3.5,-,N/A,,Overcast,10,2013-08-06 13:35:00
9:55 AM,68.0,62.6,83,30.07,10.0,NE,5.8,-,N/A,,Overcast,50,2013-08-06 13:55:00
10:15 AM,68.5,62.1,80,30.08,10.0,ENE,4.6,-,N/A,,Overcast,60,2013-08-06 14:15:00
10:35 AM,69.8,61.5,75,30.07,10.0,Calm,Calm,-,N/A,,Overcast,0,2013-08-06 14:35:00
10:55 AM,70.2,61.2,73,30.08,10.0,Calm,Calm,-,N/A,,Overcast,0,2013-08-06 14:55:00
11:15 AM,71.2,61.7,72,30.08,10.0,Calm,Calm,-,N/A,,Overcast,0,2013-08-06 15:15:00
11:35 AM,72.7,61.5,68,30.08,10.0,SE,3.5,-,N/A,,Overcast,130,2013-08-06 15:35:00
11:55 AM,73.4,61.5,66,30.08,10.0,SSE,5.8,-,N/A,,Mostly Cloudy,150,2013-08-06 15:55:00
12:15 PM,72.9,61.5,67,30.07,10.0,SSE,5.8,-,N/A,,Overcast,150,2013-08-06 16:15:00
12:35 PM,74.3,61.2,63,30.07,10.0,SE,3.5,-,N/A,,Mostly Cloudy,130,2013-08-06 16:35:00
12:55 PM,76.1,61.7,61,30.07,10.0,ESE,4.6,-,N/A,,Scattered Clouds,120,2013-08-06 16:55:00
1:15 PM,75.6,60.8,60,30.07,10.0,East,3.5,-,N/A,,Mostly Cloudy,100,2013-08-06 17:15:00
1:35 PM,77.5,61.7,58,30.06,10.0,East,4.6,-,N/A,,Mostly Cloudy,90,2013-08-06 17:35:00
1:55 PM,76.5,59.9,56,30.06,10.0,East,4.6,-,N/A,,Mostly Cloudy,100,2013-08-06 17:55:00
2:15 PM,77.0,61.2,58,30.06,10.0,East,5.8,-,N/A,,Mostly Cloudy,90,2013-08-06 18:15:00
2:35 PM,76.8,61.9,60,30.06,10.0,SE,4.6,-,N/A,,Overcast,130,2013-08-06 18:35:00
2:55 PM,78.8,62.1,56,30.06,10.0,East,5.8,-,N/A,,Overcast,100,2013-08-06 18:55:00
3:15 PM,78.4,60.3,53,30.05,10.0,South,3.5,-,N/A,,Mostly Cloudy,180,2013-08-06 19:15:00
3:35 PM,78.6,61.3,55,30.05,10.0,ESE,5.8,-,N/A,,Scattered Clouds,110,2013-08-06 19:35:00
3:55 PM,79.5,61.9,55,30.05,10.0,SE,5.8,-,N/A,,Scattered Clouds,140,2013-08-06 19:55:00
4:15 PM,79.3,60.3,52,30.05,10.0,South,5.8,-,N/A,,Mostly Cloudy,180,2013-08-06 20:15:00
4:35 PM,78.6,61.7,56,30.05,10.0,ESE,8.1,-,N/A,,Scattered Clouds,120,2013-08-06 20:35:00
4:55 PM,78.8,61.7,56,30.05,10.0,ESE,6.9,-,N/A,,Clear,120,2013-08-06 20:55:00
5:15 PM,77.2,61.5,58,30.04,10.0,SE,5.8,-,N/A,,Clear,140,2013-08-06 21:15:00
5:35 PM,77.9,61.5,57,30.05,10.0,SE,6.9,-,N/A,,Scattered Clouds,130,2013-08-06 21:35:00
5:55 PM,78.1,62.2,58,30.05,10.0,ESE,10.4,-,N/A,,Scattered Clouds,110,2013-08-06 21:55:00
6:15 PM,76.1,62.4,62,30.05,10.0,SE,4.6,-,N/A,,Scattered Clouds,130,2013-08-06 22:15:00
6:35 PM,75.9,62.6,63,30.05,10.0,ESE,4.6,-,N/A,,Mostly Cloudy,110,2013-08-06 22:35:00
6:55 PM,76.3,62.6,62,30.06,10.0,SE,6.9,-,N/A,,Overcast,140,2013-08-06 22:55:00
7:15 PM,74.7,62.6,66,30.06,10.0,SE,4.6,-,N/A,,Scattered Clouds,140,2013-08-06 23:15:00
7:35 PM,73.4,63.1,70,30.07,10.0,ESE,3.5,-,N/A,,Scattered Clouds,110,2013-08-06 23:35:00
7:55 PM,73.2,63.1,71,30.06,10.0,SE,5.8,-,N/A,,Scattered Clouds,130,2013-08-06 23:55:00
8:15 PM,72.5,63.3,73,30.07,10.0,Calm,Calm,-,N/A,,Scattered Clouds,0,2013-08-07 00:15:00
8:35 PM,71.4,63.5,76,30.07,10.0,Calm,Calm,-,N/A,,Scattered Clouds,0,2013-08-07 00:35:00
8:55 PM,71.1,63.5,77,30.06,10.0,Calm,Calm,-,N/A,,Mostly Cloudy,0,2013-08-07 00:55:00
9:15 PM,70.5,63.5,78,30.08,10.0,Calm,Calm,-,N/A,,Scattered Clouds,0,2013-08-07 01:15:00
9:35 PM,69.8,63.7,81,30.08,10.0,Calm,Calm,-,N/A,,Mostly Cloudy,0,2013-08-07 01:35:00
9:55 PM,68.9,63.7,83,30.08,10.0,Calm,Calm,-,N/A,,Overcast,0,2013-08-07 01:55:00
10:15 PM,69.8,63.9,81,30.08,10.0,Calm,Calm,-,N/A,,Overcast,0,2013-08-07 02:15:00
10:35 PM,69.8,63.9,81,30.08,10.0,Calm,Calm,-,N/A,,Overcast,0,2013-08-07 02:35:00
10:55 PM,68.2,64.2,87,30.09,10.0,Calm,Calm,-,N/A,,Overcast,0,2013-08-07 02:55:00
11:15 PM,68.9,64.0,84,30.09,10.0,Calm,Calm,-,N/A,,Overcast,0,2013-08-07 03:15:00
11:35 PM,69.6,64.4,83,30.09,10.0,Calm,Calm,-,N/A,,Overcast,0,2013-08-07 03:35:00
11:55 PM,69.1,64.4,85,30.08,10.0,Calm,Calm,-,N/A,,Mostly Cloudy,0,2013-08-07 03:55:00